Cheshire, Connecticut
Current Conditions -  °F | °C
As of 2:53 AM on Saturday 25 Oct 2014 (Local Time) from KMMK Reporting Station
Clear Clear  
Wind Chill: 46°   Ceiling: Unl
Heat Index: 48°   Visibility: 10mi
Dew Point: 41°   Wind: 5mph
Humidity: 77%   Direction: 300°WNW
Pressure: 29.81"   Gusts: NA
Location:  41.5°N, 72.9°W
Report Text: KMMK 250653Z AUTO 30004KT 10SM CLR 09/05 A2981 RMK AO2 SLP095 T00890050 TSNO
Loading
Personal Weather Stations






























Interactive Weather Map New forecast layout! Learn more

10-Day Weather Forecast

Advertisements
Track Severe Weather on mobile